sensor_id;sensor_type;location;lat;lon;timestamp;P1;durP1;ratioP1;P2;durP2;ratioP2
20179;SDS011;10249;48.900;9.090;2022-12-29T00:00:09;12.60;;;12.10;;
20179;SDS011;10249;48.900;9.090;2022-12-29T00:02:38;14.00;;;13.40;;
20179;SDS011;10249;48.900;9.090;2022-12-29T00:05:05;14.07;;;13.33;;
20179;SDS011;10249;48.900;9.090;2022-12-29T00:07:33;13.50;;;12.90;;
20179;SDS011;10249;48.900;9.090;2022-12-29T00:10:00;13.50;;;12.80;;
20179;SDS011;10249;48.900;9.090;2022-12-29T00:12:27;13.23;;;12.70;;
20179;SDS011;10249;48.900;9.090;2022-12-29T00:15:14;13.23;;;12.63;;
20179;SDS011;10249;48.900;9.090;2022-12-29T00:18:00;13.23;;;12.63;;
20179;SDS011;10249;48.900;9.090;2022-12-29T00:20:27;13.57;;;12.87;;
20179;SDS011;10249;48.900;9.090;2022-12-29T00:23:12;15.43;;;14.60;;
20179;SDS011;10249;48.900;9.090;2022-12-29T00:25:57;13.00;;;12.50;;
20179;SDS011;10249;48.900;9.090;2022-12-29T00:28:41;13.90;;;13.30;;
20179;SDS011;10249;48.900;9.090;2022-12-29T00:31:26;13.10;;;12.60;;
20179;SDS011;10249;48.900;9.090;2022-12-29T00:34:12;13.70;;;13.10;;
20179;SDS011;10249;48.900;9.090;2022-12-29T00:37:06;13.60;;;13.10;;
20179;SDS011;10249;48.900;9.090;2022-12-29T00:39:33;13.00;;;12.50;;
20179;SDS011;10249;48.900;9.090;2022-12-29T00:42:18;14.20;;;13.50;;
20179;SDS011;10249;48.900;9.090;2022-12-29T00:45:14;13.70;;;13.10;;
20179;SDS011;10249;48.900;9.090;2022-12-29T00:47:41;13.73;;;13.03;;
20179;SDS011;10249;48.900;9.090;2022-12-29T00:50:09;13.17;;;12.67;;
20179;SDS011;10249;48.900;9.090;2022-12-29T00:52:35;14.93;;;13.93;;
20179;SDS011;10249;48.900;9.090;2022-12-29T00:55:02;13.20;;;12.70;;
20179;SDS011;10249;48.900;9.090;2022-12-29T00:57:29;13.50;;;12.80;;
20179;SDS011;10249;48.900;9.090;2022-12-29T00:59:56;13.40;;;12.80;;
20179;SDS011;10249;48.900;9.090;2022-12-29T01:02:24;12.90;;;12.40;;
20179;SDS011;10249;48.900;9.090;2022-12-29T01:04:51;13.50;;;13.00;;
20179;SDS011;10249;48.900;9.090;2022-12-29T01:07:19;12.93;;;12.43;;
20179;SDS011;10249;48.900;9.090;2022-12-29T01:09:46;13.00;;;12.40;;
20179;SDS011;10249;48.900;9.090;2022-12-29T01:12:32;12.50;;;12.00;;
20179;SDS011;10249;48.900;9.090;2022-12-29T01:15:06;12.57;;;12.07;;
20179;SDS011;10249;48.900;9.090;2022-12-29T01:17:34;13.00;;;12.50;;
20179;SDS011;10249;48.900;9.090;2022-12-29T01:20:02;13.20;;;12.57;;
20179;SDS011;10249;48.900;9.090;2022-12-29T01:22:30;12.77;;;12.27;;
20179;SDS011;10249;48.900;9.090;2022-12-29T01:24:57;12.93;;;12.43;;
20179;SDS011;10249;48.900;9.090;2022-12-29T01:27:24;12.23;;;11.83;;
20179;SDS011;10249;48.900;9.090;2022-12-29T01:29:51;13.13;;;12.63;;
20179;SDS011;10249;48.900;9.090;2022-12-29T01:32:18;12.70;;;12.20;;
20179;SDS011;10249;48.900;9.090;2022-12-29T01:34:45;12.87;;;12.37;;
20179;SDS011;10249;48.900;9.090;2022-12-29T01:37:12;12.70;;;12.20;;
20179;SDS011;10249;48.900;9.090;2022-12-29T01:39:41;12.90;;;12.40;;
20179;SDS011;10249;48.900;9.090;2022-12-29T01:42:10;15.23;;;13.87;;
20179;SDS011;10249;48.900;9.090;2022-12-29T01:44:49;12.70;;;12.20;;
20179;SDS011;10249;48.900;9.090;2022-12-29T01:47:18;13.30;;;12.70;;
20179;SDS011;10249;48.900;9.090;2022-12-29T01:49:47;12.63;;;12.13;;
20179;SDS011;10249;48.900;9.090;2022-12-29T01:52:15;12.80;;;12.30;;
20179;SDS011;10249;48.900;9.090;2022-12-29T01:54:43;12.70;;;12.20;;
20179;SDS011;10249;48.900;9.090;2022-12-29T01:57:15;12.17;;;11.77;;
20179;SDS011;10249;48.900;9.090;2022-12-29T01:59:45;13.33;;;12.67;;
20179;SDS011;10249;48.900;9.090;2022-12-29T02:02:15;12.80;;;12.30;;
20179;SDS011;10249;48.900;9.090;2022-12-29T02:04:42;13.23;;;12.73;;
20179;SDS011;10249;48.900;9.090;2022-12-29T02:07:11;12.77;;;12.27;;
20179;SDS011;10249;48.900;9.090;2022-12-29T02:09:40;13.40;;;12.90;;
20179;SDS011;10249;48.900;9.090;2022-12-29T02:12:09;12.83;;;12.23;;
20179;SDS011;10249;48.900;9.090;2022-12-29T02:14:36;12.90;;;12.40;;
20179;SDS011;10249;48.900;9.090;2022-12-29T02:17:05;13.50;;;12.90;;
20179;SDS011;10249;48.900;9.090;2022-12-29T02:22:27;12.67;;;12.17;;
20179;SDS011;10249;48.900;9.090;2022-12-29T02:27:48;12.90;;;12.40;;
20179;SDS011;10249;48.900;9.090;2022-12-29T02:30:30;13.43;;;12.93;;
20179;SDS011;10249;48.900;9.090;2022-12-29T02:32:59;13.30;;;12.77;;
20179;SDS011;10249;48.900;9.090;2022-12-29T02:35:29;13.67;;;13.10;;
20179;SDS011;10249;48.900;9.090;2022-12-29T02:38:03;13.30;;;12.80;;
20179;SDS011;10249;48.900;9.090;2022-12-29T02:40:35;13.93;;;13.43;;
20179;SDS011;10249;48.900;9.090;2022-12-29T02:43:08;13.43;;;12.93;;
20179;SDS011;10249;48.900;9.090;2022-12-29T02:45:41;14.03;;;13.43;;
20179;SDS011;10249;48.900;9.090;2022-12-29T02:48:14;13.43;;;12.93;;
20179;SDS011;10249;48.900;9.090;2022-12-29T02:50:43;13.40;;;12.90;;
20179;SDS011;10249;48.900;9.090;2022-12-29T02:53:15;14.40;;;13.60;;
20179;SDS011;10249;48.900;9.090;2022-12-29T02:56:03;13.10;;;12.60;;
20179;SDS011;10249;48.900;9.090;2022-12-29T02:58:29;13.20;;;12.70;;
20179;SDS011;10249;48.900;9.090;2022-12-29T03:01:01;13.47;;;12.97;;
20179;SDS011;10249;48.900;9.090;2022-12-29T03:03:35;13.23;;;12.73;;
20179;SDS011;10249;48.900;9.090;2022-12-29T03:06:10;13.53;;;13.03;;
20179;SDS011;10249;48.900;9.090;2022-12-29T03:08:40;13.60;;;13.10;;
20179;SDS011;10249;48.900;9.090;2022-12-29T03:11:11;13.57;;;13.07;;
20179;SDS011;10249;48.900;9.090;2022-12-29T03:13:54;13.97;;;13.40;;
20179;SDS011;10249;48.900;9.090;2022-12-29T03:16:43;14.10;;;13.40;;
20179;SDS011;10249;48.900;9.090;2022-12-29T03:19:14;14.07;;;13.27;;
20179;SDS011;10249;48.900;9.090;2022-12-29T03:21:43;13.50;;;13.00;;
20179;SDS011;10249;48.900;9.090;2022-12-29T03:24:29;14.13;;;13.53;;
20179;SDS011;10249;48.900;9.090;2022-12-29T03:26:58;13.87;;;13.37;;
20179;SDS011;10249;48.900;9.090;2022-12-29T03:29:25;13.50;;;13.00;;
20179;SDS011;10249;48.900;9.090;2022-12-29T03:31:54;14.37;;;13.77;;
20179;SDS011;10249;48.900;9.090;2022-12-29T03:34:22;14.10;;;13.50;;
20179;SDS011;10249;48.900;9.090;2022-12-29T03:36:52;13.70;;;13.20;;
20179;SDS011;10249;48.900;9.090;2022-12-29T03:39:20;13.87;;;13.30;;
20179;SDS011;10249;48.900;9.090;2022-12-29T03:41:48;13.63;;;13.00;;
20179;SDS011;10249;48.900;9.090;2022-12-29T03:44:17;14.60;;;13.53;;
20179;SDS011;10249;48.900;9.090;2022-12-29T03:46:44;13.90;;;13.20;;
20179;SDS011;10249;48.900;9.090;2022-12-29T03:49:13;13.73;;;13.03;;
20179;SDS011;10249;48.900;9.090;2022-12-29T03:51:40;13.87;;;13.37;;
20179;SDS011;10249;48.900;9.090;2022-12-29T03:54:07;14.20;;;13.60;;
20179;SDS011;10249;48.900;9.090;2022-12-29T03:56:34;13.70;;;13.10;;
20179;SDS011;10249;48.900;9.090;2022-12-29T03:59:01;13.57;;;13.07;;
20179;SDS011;10249;48.900;9.090;2022-12-29T04:01:28;14.00;;;13.40;;
20179;SDS011;10249;48.900;9.090;2022-12-29T04:03:55;13.90;;;13.30;;
20179;SDS011;10249;48.900;9.090;2022-12-29T04:06:23;14.60;;;13.83;;
20179;SDS011;10249;48.900;9.090;2022-12-29T04:08:50;13.90;;;13.30;;
20179;SDS011;10249;48.900;9.090;2022-12-29T04:11:17;13.60;;;13.10;;
20179;SDS011;10249;48.900;9.090;2022-12-29T04:13:44;13.43;;;12.93;;
20179;SDS011;10249;48.900;9.090;2022-12-29T04:16:11;13.73;;;13.13;;
20179;SDS011;10249;48.900;9.090;2022-12-29T04:18:38;13.43;;;12.93;;
20179;SDS011;10249;48.900;9.090;2022-12-29T04:21:06;13.47;;;12.97;;
20179;SDS011;10249;48.900;9.090;2022-12-29T04:23:38;13.40;;;12.90;;
20179;SDS011;10249;48.900;9.090;2022-12-29T04:26:06;13.83;;;13.23;;
20179;SDS011;10249;48.900;9.090;2022-12-29T04:28:34;13.87;;;13.27;;
20179;SDS011;10249;48.900;9.090;2022-12-29T04:31:01;13.30;;;12.80;;
20179;SDS011;10249;48.900;9.090;2022-12-29T04:33:28;13.33;;;12.83;;
20179;SDS011;10249;48.900;9.090;2022-12-29T04:35:55;14.07;;;13.20;;
20179;SDS011;10249;48.900;9.090;2022-12-29T04:38:23;13.77;;;13.17;;
20179;SDS011;10249;48.900;9.090;2022-12-29T04:40:51;13.57;;;13.07;;
20179;SDS011;10249;48.900;9.090;2022-12-29T04:43:18;13.60;;;13.00;;
20179;SDS011;10249;48.900;9.090;2022-12-29T04:45:47;14.10;;;13.40;;
20179;SDS011;10249;48.900;9.090;2022-12-29T04:48:14;13.73;;;13.13;;
20179;SDS011;10249;48.900;9.090;2022-12-29T04:50:41;13.67;;;13.07;;
20179;SDS011;10249;48.900;9.090;2022-12-29T04:53:08;13.40;;;12.87;;
20179;SDS011;10249;48.900;9.090;2022-12-29T04:55:35;14.00;;;13.30;;
20179;SDS011;10249;48.900;9.090;2022-12-29T04:58:04;13.93;;;13.27;;
20179;SDS011;10249;48.900;9.090;2022-12-29T05:00:31;13.70;;;13.10;;
20179;SDS011;10249;48.900;9.090;2022-12-29T05:02:58;14.13;;;13.40;;
20179;SDS011;10249;48.900;9.090;2022-12-29T05:05:25;15.43;;;14.33;;
20179;SDS011;10249;48.900;9.090;2022-12-29T05:07:52;13.70;;;13.10;;
20179;SDS011;10249;48.900;9.090;2022-12-29T05:10:19;13.93;;;13.30;;
20179;SDS011;10249;48.900;9.090;2022-12-29T05:12:47;14.50;;;13.70;;
20179;SDS011;10249;48.900;9.090;2022-12-29T05:15:15;13.53;;;12.93;;
20179;SDS011;10249;48.900;9.090;2022-12-29T05:17:42;13.53;;;12.93;;
20179;SDS011;10249;48.900;9.090;2022-12-29T05:20:09;13.80;;;13.20;;
20179;SDS011;10249;48.900;9.090;2022-12-29T05:22:36;12.87;;;12.37;;
20179;SDS011;10249;48.900;9.090;2022-12-29T05:25:04;13.13;;;12.63;;
20179;SDS011;10249;48.900;9.090;2022-12-29T05:27:31;12.70;;;12.20;;
20179;SDS011;10249;48.900;9.090;2022-12-29T05:29:58;13.43;;;12.73;;
20179;SDS011;10249;48.900;9.090;2022-12-29T05:32:26;13.57;;;12.77;;
20179;SDS011;10249;48.900;9.090;2022-12-29T05:34:53;13.27;;;12.77;;
20179;SDS011;10249;48.900;9.090;2022-12-29T05:37:20;13.00;;;12.50;;
20179;SDS011;10249;48.900;9.090;2022-12-29T05:39:48;12.77;;;12.27;;
20179;SDS011;10249;48.900;9.090;2022-12-29T05:42:15;13.87;;;13.27;;
20179;SDS011;10249;48.900;9.090;2022-12-29T05:44:42;13.93;;;13.20;;
20179;SDS011;10249;48.900;9.090;2022-12-29T05:47:09;13.83;;;13.23;;
20179;SDS011;10249;48.900;9.090;2022-12-29T05:49:37;13.40;;;12.80;;
20179;SDS011;10249;48.900;9.090;2022-12-29T05:52:04;13.43;;;12.73;;
20179;SDS011;10249;48.900;9.090;2022-12-29T05:54:31;13.60;;;13.00;;
20179;SDS011;10249;48.900;9.090;2022-12-29T05:56:58;13.47;;;12.97;;
20179;SDS011;10249;48.900;9.090;2022-12-29T05:59:25;13.47;;;12.90;;
20179;SDS011;10249;48.900;9.090;2022-12-29T06:01:52;13.23;;;12.73;;
20179;SDS011;10249;48.900;9.090;2022-12-29T06:04:19;13.17;;;12.67;;
20179;SDS011;10249;48.900;9.090;2022-12-29T06:06:48;13.23;;;12.63;;
20179;SDS011;10249;48.900;9.090;2022-12-29T06:09:15;13.40;;;12.90;;
20179;SDS011;10249;48.900;9.090;2022-12-29T06:11:42;13.87;;;13.27;;
20179;SDS011;10249;48.900;9.090;2022-12-29T06:14:09;13.17;;;12.67;;
20179;SDS011;10249;48.900;9.090;2022-12-29T06:16:36;13.53;;;13.03;;
20179;SDS011;10249;48.900;9.090;2022-12-29T06:19:03;13.50;;;13.00;;
20179;SDS011;10249;48.900;9.090;2022-12-29T06:21:30;12.77;;;12.27;;
20179;SDS011;10249;48.900;9.090;2022-12-29T06:23:59;12.93;;;12.33;;
20179;SDS011;10249;48.900;9.090;2022-12-29T06:26:26;13.40;;;12.90;;
20179;SDS011;10249;48.900;9.090;2022-12-29T06:28:54;12.73;;;12.23;;
20179;SDS011;10249;48.900;9.090;2022-12-29T06:31:21;13.37;;;12.83;;
20179;SDS011;10249;48.900;9.090;2022-12-29T06:33:48;13.43;;;12.90;;
20179;SDS011;10249;48.900;9.090;2022-12-29T06:36:15;13.13;;;12.57;;
20179;SDS011;10249;48.900;9.090;2022-12-29T06:38:42;13.43;;;12.93;;
20179;SDS011;10249;48.900;9.090;2022-12-29T06:41:11;13.20;;;12.70;;
20179;SDS011;10249;48.900;9.090;2022-12-29T06:43:38;13.53;;;12.93;;
20179;SDS011;10249;48.900;9.090;2022-12-29T06:46:05;13.57;;;13.00;;
20179;SDS011;10249;48.900;9.090;2022-12-29T06:48:32;13.53;;;12.93;;
20179;SDS011;10249;48.900;9.090;2022-12-29T06:50:59;13.33;;;12.73;;
20179;SDS011;10249;48.900;9.090;2022-12-29T06:53:26;13.70;;;13.10;;
20179;SDS011;10249;48.900;9.090;2022-12-29T06:55:53;12.97;;;12.47;;
20179;SDS011;10249;48.900;9.090;2022-12-29T06:58:22;13.60;;;13.00;;
20179;SDS011;10249;48.900;9.090;2022-12-29T07:00:50;13.17;;;12.67;;
20179;SDS011;10249;48.900;9.090;2022-12-29T07:03:17;12.97;;;12.47;;
20179;SDS011;10249;48.900;9.090;2022-12-29T07:05:44;13.23;;;12.73;;
20179;SDS011;10249;48.900;9.090;2022-12-29T07:08:11;13.10;;;12.60;;
20179;SDS011;10249;48.900;9.090;2022-12-29T07:10:39;14.30;;;13.60;;
20179;SDS011;10249;48.900;9.090;2022-12-29T07:13:06;13.40;;;12.80;;
20179;SDS011;10249;48.900;9.090;2022-12-29T07:15:34;13.20;;;12.70;;
20179;SDS011;10249;48.900;9.090;2022-12-29T07:18:02;13.73;;;13.03;;
20179;SDS011;10249;48.900;9.090;2022-12-29T07:20:29;12.70;;;12.20;;
20179;SDS011;10249;48.900;9.090;2022-12-29T07:22:56;13.20;;;12.70;;
20179;SDS011;10249;48.900;9.090;2022-12-29T07:25:23;12.80;;;12.30;;
20179;SDS011;10249;48.900;9.090;2022-12-29T07:27:50;14.33;;;13.47;;
20179;SDS011;10249;48.900;9.090;2022-12-29T07:30:18;14.10;;;13.50;;
20179;SDS011;10249;48.900;9.090;2022-12-29T07:32:46;13.30;;;12.73;;
20179;SDS011;10249;48.900;9.090;2022-12-29T07:35:13;13.00;;;12.50;;
20179;SDS011;10249;48.900;9.090;2022-12-29T07:37:40;13.83;;;13.23;;
20179;SDS011;10249;48.900;9.090;2022-12-29T07:40:08;13.50;;;12.93;;
20179;SDS011;10249;48.900;9.090;2022-12-29T07:42:35;14.10;;;13.50;;
20179;SDS011;10249;48.900;9.090;2022-12-29T07:45:03;13.33;;;12.83;;
20179;SDS011;10249;48.900;9.090;2022-12-29T07:47:30;14.03;;;13.43;;
20179;SDS011;10249;48.900;9.090;2022-12-29T07:49:58;13.77;;;13.17;;
20179;SDS011;10249;48.900;9.090;2022-12-29T07:52:25;13.73;;;13.13;;
20179;SDS011;10249;48.900;9.090;2022-12-29T07:54:52;13.83;;;13.23;;
20179;SDS011;10249;48.900;9.090;2022-12-29T07:57:19;13.27;;;12.67;;
20179;SDS011;10249;48.900;9.090;2022-12-29T07:59:47;13.83;;;13.23;;
20179;SDS011;10249;48.900;9.090;2022-12-29T08:02:14;13.53;;;13.03;;
20179;SDS011;10249;48.900;9.090;2022-12-29T08:04:41;13.90;;;13.30;;
20179;SDS011;10249;48.900;9.090;2022-12-29T08:07:09;13.40;;;12.90;;
20179;SDS011;10249;48.900;9.090;2022-12-29T08:09:36;13.47;;;12.83;;
20179;SDS011;10249;48.900;9.090;2022-12-29T08:12:03;13.07;;;12.57;;
20179;SDS011;10249;48.900;9.090;2022-12-29T08:14:30;12.93;;;12.43;;
20179;SDS011;10249;48.900;9.090;2022-12-29T08:16:57;12.93;;;12.43;;
20179;SDS011;10249;48.900;9.090;2022-12-29T08:19:24;13.77;;;13.17;;
20179;SDS011;10249;48.900;9.090;2022-12-29T08:21:52;13.27;;;12.77;;
20179;SDS011;10249;48.900;9.090;2022-12-29T08:24:20;14.30;;;13.70;;
20179;SDS011;10249;48.900;9.090;2022-12-29T08:26:47;13.57;;;13.07;;
20179;SDS011;10249;48.900;9.090;2022-12-29T08:29:14;13.00;;;12.50;;
20179;SDS011;10249;48.900;9.090;2022-12-29T08:31:41;13.40;;;12.90;;
20179;SDS011;10249;48.900;9.090;2022-12-29T08:34:09;13.30;;;12.80;;
20179;SDS011;10249;48.900;9.090;2022-12-29T08:36:36;13.30;;;12.80;;
20179;SDS011;10249;48.900;9.090;2022-12-29T08:39:03;14.27;;;13.57;;
20179;SDS011;10249;48.900;9.090;2022-12-29T08:41:32;13.27;;;12.77;;
20179;SDS011;10249;48.900;9.090;2022-12-29T08:43:59;14.80;;;13.47;;
20179;SDS011;10249;48.900;9.090;2022-12-29T08:46:26;14.07;;;13.37;;
20179;SDS011;10249;48.900;9.090;2022-12-29T08:48:53;13.90;;;13.30;;
20179;SDS011;10249;48.900;9.090;2022-12-29T08:51:20;14.80;;;14.20;;
20179;SDS011;10249;48.900;9.090;2022-12-29T08:53:47;13.77;;;13.17;;
20179;SDS011;10249;48.900;9.090;2022-12-29T08:56:15;13.67;;;13.07;;
20179;SDS011;10249;48.900;9.090;2022-12-29T08:58:44;13.90;;;13.30;;
20179;SDS011;10249;48.900;9.090;2022-12-29T09:01:11;13.27;;;12.77;;
20179;SDS011;10249;48.900;9.090;2022-12-29T09:03:38;13.30;;;12.80;;
20179;SDS011;10249;48.900;9.090;2022-12-29T09:06:05;13.33;;;12.83;;
20179;SDS011;10249;48.900;9.090;2022-12-29T09:08:32;13.80;;;13.20;;
20179;SDS011;10249;48.900;9.090;2022-12-29T09:11:05;13.80;;;13.20;;
20179;SDS011;10249;48.900;9.090;2022-12-29T09:13:32;13.90;;;13.30;;
20179;SDS011;10249;48.900;9.090;2022-12-29T09:16:00;13.97;;;13.37;;
20179;SDS011;10249;48.900;9.090;2022-12-29T09:18:27;14.13;;;13.53;;
20179;SDS011;10249;48.900;9.090;2022-12-29T09:20:55;14.70;;;14.00;;
20179;SDS011;10249;48.900;9.090;2022-12-29T09:23:23;14.10;;;13.50;;
20179;SDS011;10249;48.900;9.090;2022-12-29T09:25:50;14.27;;;13.67;;
20179;SDS011;10249;48.900;9.090;2022-12-29T09:28:17;14.50;;;13.80;;
20179;SDS011;10249;48.900;9.090;2022-12-29T09:30:44;14.90;;;13.90;;
20179;SDS011;10249;48.900;9.090;2022-12-29T09:33:13;13.93;;;13.33;;
20179;SDS011;10249;48.900;9.090;2022-12-29T09:35:41;14.20;;;13.60;;
20179;SDS011;10249;48.900;9.090;2022-12-29T09:38:09;13.83;;;13.33;;
20179;SDS011;10249;48.900;9.090;2022-12-29T09:40:36;14.60;;;13.80;;
20179;SDS011;10249;48.900;9.090;2022-12-29T09:43:12;14.00;;;13.40;;
20179;SDS011;10249;48.900;9.090;2022-12-29T09:45:44;15.37;;;14.50;;
20179;SDS011;10249;48.900;9.090;2022-12-29T09:48:16;14.40;;;13.80;;
20179;SDS011;10249;48.900;9.090;2022-12-29T09:50:43;14.63;;;13.93;;
20179;SDS011;10249;48.900;9.090;2022-12-29T09:53:14;15.30;;;14.50;;
20179;SDS011;10249;48.900;9.090;2022-12-29T09:55:44;14.83;;;14.17;;
20179;SDS011;10249;48.900;9.090;2022-12-29T09:58:12;14.90;;;14.20;;
20179;SDS011;10249;48.900;9.090;2022-12-29T10:00:41;15.70;;;14.90;;
20179;SDS011;10249;48.900;9.090;2022-12-29T10:03:12;15.00;;;14.30;;
20179;SDS011;10249;48.900;9.090;2022-12-29T10:05:43;15.00;;;14.30;;
20179;SDS011;10249;48.900;9.090;2022-12-29T10:08:17;15.07;;;14.37;;
20179;SDS011;10249;48.900;9.090;2022-12-29T10:10:48;15.20;;;14.30;;
20179;SDS011;10249;48.900;9.090;2022-12-29T10:13:20;15.10;;;14.40;;
20179;SDS011;10249;48.900;9.090;2022-12-29T10:15:54;18.07;;;17.00;;
20179;SDS011;10249;48.900;9.090;2022-12-29T10:18:32;15.17;;;14.57;;
20179;SDS011;10249;48.900;9.090;2022-12-29T10:21:04;14.50;;;13.80;;
20179;SDS011;10249;48.900;9.090;2022-12-29T10:23:35;14.80;;;14.10;;
20179;SDS011;10249;48.900;9.090;2022-12-29T10:26:02;14.53;;;13.93;;
20179;SDS011;10249;48.900;9.090;2022-12-29T10:28:33;14.80;;;14.03;;
20179;SDS011;10249;48.900;9.090;2022-12-29T10:31:01;14.40;;;13.80;;
20179;SDS011;10249;48.900;9.090;2022-12-29T10:33:32;14.57;;;13.97;;
20179;SDS011;10249;48.900;9.090;2022-12-29T10:36:04;14.27;;;13.67;;
20179;SDS011;10249;48.900;9.090;2022-12-29T10:38:38;14.17;;;13.57;;
20179;SDS011;10249;48.900;9.090;2022-12-29T10:41:11;14.33;;;13.73;;
20179;SDS011;10249;48.900;9.090;2022-12-29T10:43:42;14.90;;;14.20;;
20179;SDS011;10249;48.900;9.090;2022-12-29T10:46:10;15.40;;;14.47;;
20179;SDS011;10249;48.900;9.090;2022-12-29T10:48:38;15.10;;;14.40;;
20179;SDS011;10249;48.900;9.090;2022-12-29T10:51:07;16.10;;;15.37;;
20179;SDS011;10249;48.900;9.090;2022-12-29T10:53:35;14.07;;;13.47;;
20179;SDS011;10249;48.900;9.090;2022-12-29T10:56:09;14.33;;;13.73;;
20179;SDS011;10249;48.900;9.090;2022-12-29T10:58:41;14.30;;;13.70;;
20179;SDS011;10249;48.900;9.090;2022-12-29T11:01:09;14.83;;;14.00;;
20179;SDS011;10249;48.900;9.090;2022-12-29T11:03:42;13.90;;;13.30;;
20179;SDS011;10249;48.900;9.090;2022-12-29T11:06:12;14.97;;;14.27;;
20179;SDS011;10249;48.900;9.090;2022-12-29T11:08:44;14.10;;;13.50;;
20179;SDS011;10249;48.900;9.090;2022-12-29T11:11:14;14.17;;;13.57;;
20179;SDS011;10249;48.900;9.090;2022-12-29T11:13:49;14.57;;;13.87;;
20179;SDS011;10249;48.900;9.090;2022-12-29T11:16:22;14.53;;;13.80;;
20179;SDS011;10249;48.900;9.090;2022-12-29T11:18:53;15.13;;;14.43;;
20179;SDS011;10249;48.900;9.090;2022-12-29T11:21:26;14.30;;;13.70;;
20179;SDS011;10249;48.900;9.090;2022-12-29T11:23:57;15.07;;;14.37;;
20179;SDS011;10249;48.900;9.090;2022-12-29T11:26:24;15.10;;;14.27;;
20179;SDS011;10249;48.900;9.090;2022-12-29T11:29:08;14.43;;;13.83;;
20179;SDS011;10249;48.900;9.090;2022-12-29T11:31:40;15.20;;;14.47;;
20179;SDS011;10249;48.900;9.090;2022-12-29T11:34:07;15.47;;;14.67;;
20179;SDS011;10249;48.900;9.090;2022-12-29T11:36:36;25.00;;;23.90;;
20179;SDS011;10249;48.900;9.090;2022-12-29T11:39:03;46.17;;;44.47;;
20179;SDS011;10249;48.900;9.090;2022-12-29T11:41:30;44.03;;;42.43;;
20179;SDS011;10249;48.900;9.090;2022-12-29T11:43:58;45.47;;;43.87;;
20179;SDS011;10249;48.900;9.090;2022-12-29T11:46:27;47.40;;;45.67;;
20179;SDS011;10249;48.900;9.090;2022-12-29T11:48:55;48.50;;;46.50;;
20179;SDS011;10249;48.900;9.090;2022-12-29T11:51:26;47.67;;;45.77;;
20179;SDS011;10249;48.900;9.090;2022-12-29T11:53:56;47.27;;;45.50;;
20179;SDS011;10249;48.900;9.090;2022-12-29T11:56:32;46.80;;;45.10;;
20179;SDS011;10249;48.900;9.090;2022-12-29T12:01:41;47.07;;;45.27;;
20179;SDS011;10249;48.900;9.090;2022-12-29T12:04:10;45.33;;;43.43;;
20179;SDS011;10249;48.900;9.090;2022-12-29T12:06:41;44.57;;;42.77;;
20179;SDS011;10249;48.900;9.090;2022-12-29T12:09:14;42.30;;;40.73;;
20179;SDS011;10249;48.900;9.090;2022-12-29T12:11:43;43.63;;;42.03;;
20179;SDS011;10249;48.900;9.090;2022-12-29T12:14:11;42.80;;;41.20;;
20179;SDS011;10249;48.900;9.090;2022-12-29T12:16:41;41.70;;;40.20;;
20179;SDS011;10249;48.900;9.090;2022-12-29T12:19:12;44.67;;;42.97;;
20179;SDS011;10249;48.900;9.090;2022-12-29T12:21:41;43.47;;;41.80;;
20179;SDS011;10249;48.900;9.090;2022-12-29T12:24:14;43.90;;;42.30;;
20179;SDS011;10249;48.900;9.090;2022-12-29T12:26:50;44.47;;;42.87;;
20179;SDS011;10249;48.900;9.090;2022-12-29T12:29:22;44.17;;;42.53;;
20179;SDS011;10249;48.900;9.090;2022-12-29T12:31:51;43.60;;;42.00;;
20179;SDS011;10249;48.900;9.090;2022-12-29T12:34:22;44.03;;;42.43;;
20179;SDS011;10249;48.900;9.090;2022-12-29T12:37:02;41.97;;;40.47;;
20179;SDS011;10249;48.900;9.090;2022-12-29T12:39:34;42.07;;;40.57;;
20179;SDS011;10249;48.900;9.090;2022-12-29T12:42:10;42.37;;;40.67;;
20179;SDS011;10249;48.900;9.090;2022-12-29T12:44:43;41.27;;;39.77;;
20179;SDS011;10249;48.900;9.090;2022-12-29T12:47:19;42.37;;;40.87;;
20179;SDS011;10249;48.900;9.090;2022-12-29T12:52:43;43.53;;;41.97;;
20179;SDS011;10249;48.900;9.090;2022-12-29T12:55:24;42.80;;;41.27;;
20179;SDS011;10249;48.900;9.090;2022-12-29T12:57:56;43.23;;;41.67;;
20179;SDS011;10249;48.900;9.090;2022-12-29T13:00:26;42.27;;;40.77;;
20179;SDS011;10249;48.900;9.090;2022-12-29T13:03:01;42.93;;;41.43;;
20179;SDS011;10249;48.900;9.090;2022-12-29T13:05:33;42.80;;;41.30;;
20179;SDS011;10249;48.900;9.090;2022-12-29T13:08:13;43.00;;;41.50;;
20179;SDS011;10249;48.900;9.090;2022-12-29T13:10:49;41.60;;;40.10;;
20179;SDS011;10249;48.900;9.090;2022-12-29T13:13:30;41.97;;;40.47;;
20179;SDS011;10249;48.900;9.090;2022-12-29T13:16:01;42.07;;;40.57;;
20179;SDS011;10249;48.900;9.090;2022-12-29T13:18:31;42.70;;;41.20;;
20179;SDS011;10249;48.900;9.090;2022-12-29T13:21:02;42.67;;;41.17;;
20179;SDS011;10249;48.900;9.090;2022-12-29T13:23:33;42.53;;;41.03;;
20179;SDS011;10249;48.900;9.090;2022-12-29T13:26:05;43.03;;;41.43;;
20179;SDS011;10249;48.900;9.090;2022-12-29T13:28:37;41.63;;;40.13;;
20179;SDS011;10249;48.900;9.090;2022-12-29T13:31:09;42.07;;;40.57;;
20179;SDS011;10249;48.900;9.090;2022-12-29T13:33:40;42.73;;;41.23;;
20179;SDS011;10249;48.900;9.090;2022-12-29T13:36:18;42.87;;;41.37;;
20179;SDS011;10249;48.900;9.090;2022-12-29T13:38:48;41.50;;;40.00;;
20179;SDS011;10249;48.900;9.090;2022-12-29T13:41:16;43.60;;;42.03;;
20179;SDS011;10249;48.900;9.090;2022-12-29T13:43:46;41.07;;;39.67;;
20179;SDS011;10249;48.900;9.090;2022-12-29T13:46:18;42.17;;;40.47;;
20179;SDS011;10249;48.900;9.090;2022-12-29T13:48:48;40.53;;;39.13;;
20179;SDS011;10249;48.900;9.090;2022-12-29T13:51:16;40.20;;;38.80;;
20179;SDS011;10249;48.900;9.090;2022-12-29T13:53:51;40.33;;;38.93;;
20179;SDS011;10249;48.900;9.090;2022-12-29T13:56:23;40.90;;;39.50;;
20179;SDS011;10249;48.900;9.090;2022-12-29T13:58:54;40.37;;;38.97;;
20179;SDS011;10249;48.900;9.090;2022-12-29T14:01:24;40.70;;;39.03;;
20179;SDS011;10249;48.900;9.090;2022-12-29T14:03:55;43.10;;;41.20;;
20179;SDS011;10249;48.900;9.090;2022-12-29T14:06:25;41.60;;;40.10;;
20179;SDS011;10249;48.900;9.090;2022-12-29T14:08:53;39.10;;;37.70;;
20179;SDS011;10249;48.900;9.090;2022-12-29T14:11:21;40.87;;;39.47;;
20179;SDS011;10249;48.900;9.090;2022-12-29T14:13:50;38.47;;;37.17;;
20179;SDS011;10249;48.900;9.090;2022-12-29T14:16:25;38.97;;;37.57;;
20179;SDS011;10249;48.900;9.090;2022-12-29T14:18:52;40.10;;;38.70;;
20179;SDS011;10249;48.900;9.090;2022-12-29T14:21:22;40.10;;;38.70;;
20179;SDS011;10249;48.900;9.090;2022-12-29T14:23:53;41.10;;;39.60;;
20179;SDS011;10249;48.900;9.090;2022-12-29T14:29:15;39.93;;;38.53;;
20179;SDS011;10249;48.900;9.090;2022-12-29T14:31:44;13.33;;;12.73;;
20179;SDS011;10249;48.900;9.090;2022-12-29T14:34:27;12.77;;;12.27;;
20179;SDS011;10249;48.900;9.090;2022-12-29T14:36:55;13.37;;;12.67;;
20179;SDS011;10249;48.900;9.090;2022-12-29T14:39:28;13.50;;;12.90;;
20179;SDS011;10249;48.900;9.090;2022-12-29T14:41:59;13.83;;;13.03;;
20179;SDS011;10249;48.900;9.090;2022-12-29T14:44:26;12.63;;;12.13;;
20179;SDS011;10249;48.900;9.090;2022-12-29T14:46:58;12.80;;;12.30;;
20179;SDS011;10249;48.900;9.090;2022-12-29T14:49:27;13.17;;;12.53;;